Time;durP1;ratioP1;P1;durP2;ratioP2;P2;SDS_P1;SDS_P2;PMS_P1;PMS_P2;Temp;Humidity;BMP_temperature;BMP_pressure;BME280_temperature;BME280_humidity;BME280_pressure;Samples;Min_cycle;Max_cycle;Signal;HPM_P1;HPM_P2
2022/07/15 00:02:00;;;;;;;1.85;0.95;;;18.70;52.30;;;;;;4882928;29;20056;-71
2022/07/15 00:04:30;;;;;;;3.03;1.08;;;18.60;52.40;;;;;;4903258;29;20104;-72
2022/07/15 00:06:57;;;;;;;2.83;0.88;;;18.60;52.70;;;;;;4888828;29;20064;-72
2022/07/15 00:10:13;;;;;;;2.83;0.80;;;18.50;52.70;;;;;;4894456;29;20048;-72
2022/07/15 00:12:12;;;;;;;2.17;0.70;;;18.50;52.80;;;;;;4892427;29;20052;-73
2022/07/15 00:14:40;;;;;;;2.40;0.68;;;18.40;52.80;;;;;;4894067;29;20049;-74
2022/07/15 00:17:08;;;;;;;0.90;0.57;;;18.50;52.90;;;;;;4890625;29;20060;-72
2022/07/15 00:19:37;;;;;;;2.45;0.70;;;18.40;53.10;;;;;;4888305;29;20052;-71
2022/07/15 00:22:04;;;;;;;1.08;0.50;;;18.40;53.20;;;;;;4890956;29;20499;-71
2022/07/15 00:24:31;;;;;;;2.03;0.63;;;18.30;53.30;;;;;;4893386;29;20049;-71
2022/07/15 00:26:58;;;;;;;1.77;0.52;;;18.30;53.40;;;;;;4894290;29;20048;-70
2022/07/15 00:29:25;;;;;;;1.85;0.80;;;18.30;53.70;;;;;;4895382;29;20044;-71
2022/07/15 00:31:53;;;;;;;2.25;0.60;;;18.20;53.90;;;;;;4901657;29;20116;-70
2022/07/15 00:34:20;;;;;;;1.67;0.65;;;18.20;54.00;;;;;;4897155;29;20052;-72
2022/07/15 00:36:49;;;;;;;1.52;0.57;;;18.10;54.30;;;;;;4892934;29;20487;-71
2022/07/15 00:39:16;;;;;;;2.33;0.50;;;18.10;54.50;;;;;;4895576;29;20057;-70
2022/07/15 00:41:44;;;;;;;1.80;0.55;;;18.10;54.50;;;;;;4884044;29;20071;-69
2022/07/15 00:44:11;;;;;;;2.20;0.63;;;18.00;54.80;;;;;;4892228;29;20048;-71
2022/07/15 00:46:38;;;;;;;1.88;0.70;;;17.90;54.90;;;;;;4888310;29;20101;-71
2022/07/15 00:49:07;;;;;;;2.17;0.80;;;17.90;54.90;;;;;;4889942;29;20049;-71
2022/07/15 00:51:37;;;;;;;1.63;0.52;;;17.80;54.90;;;;;;4897736;29;20056;-72
2022/07/15 00:54:06;;;;;;;1.33;0.50;;;17.80;55.20;;;;;;4898730;29;20557;-71
2022/07/15 00:56:37;;;;;;;2.22;0.60;;;17.80;55.20;;;;;;4882482;29;20044;-72
2022/07/15 00:59:07;;;;;;;1.92;0.65;;;17.80;55.50;;;;;;4897186;29;20070;-70
2022/07/15 01:01:35;;;;;;;2.50;0.60;;;17.70;55.60;;;;;;4874815;29;20059;-71
2022/07/15 01:04:04;;;;;;;1.48;0.50;;;17.70;55.70;;;;;;4879662;29;20076;-70
2022/07/15 01:06:33;;;;;;;2.63;0.60;;;17.70;55.70;;;;;;4887006;29;20056;-69
2022/07/15 01:09:00;;;;;;;1.45;0.50;;;17.60;55.80;;;;;;4890438;29;20459;-71
2022/07/15 01:11:31;;;;;;;2.33;0.60;;;17.60;55.80;;;;;;4883727;29;20467;-70
2022/07/15 01:14:01;;;;;;;2.63;0.63;;;17.50;56.00;;;;;;4883859;29;20135;-69
2022/07/15 01:16:29;;;;;;;2.25;0.88;;;17.50;56.20;;;;;;4900236;29;20515;-70
2022/07/15 01:18:56;;;;;;;3.15;0.73;;;17.40;56.50;;;;;;4883922;29;20059;-71
2022/07/15 01:21:30;;;;;;;1.63;0.82;;;17.40;56.60;;;;;;4890561;29;20057;-70
2022/07/15 01:23:59;;;;;;;2.50;0.50;;;17.40;56.60;;;;;;4908298;29;21735;-69
2022/07/15 01:26:34;;;;;;;5.43;0.70;;;17.40;56.70;;;;;;4884334;29;20056;-71
2022/07/15 01:29:02;;;;;;;2.65;1.05;;;17.30;56.80;;;;;;4889728;29;20044;-71
2022/07/15 01:31:29;;;;;;;1.38;0.50;;;17.20;57.00;;;;;;4894406;29;20497;-70
2022/07/15 01:33:57;;;;;;;1.88;0.63;;;17.20;57.20;;;;;;4881348;29;20052;-69
2022/07/15 01:36:24;;;;;;;3.03;0.73;;;17.20;57.30;;;;;;4882102;29;20055;-69
2022/07/15 01:38:58;;;;;;;1.63;0.47;;;17.10;57.40;;;;;;4886059;29;20547;-72
2022/07/15 01:41:25;;;;;;;2.42;0.90;;;17.10;57.30;;;;;;4894495;29;20049;-71
2022/07/15 01:43:52;;;;;;;3.30;0.80;;;17.10;57.30;;;;;;4873355;29;20135;-69
2022/07/15 01:46:19;;;;;;;2.53;0.75;;;17.10;57.00;;;;;;4882096;29;20148;-71
2022/07/15 01:51:51;;;;;;;4.45;0.88;;;17.10;56.70;;;;;;4883754;29;20439;-70
2022/07/15 01:54:20;;;;;;;2.05;0.75;;;17.00;57.00;;;;;;4892685;29;20060;-70
2022/07/15 01:56:47;;;;;;;2.30;0.65;;;17.10;57.00;;;;;;4877125;29;20051;-71
2022/07/15 01:59:14;;;;;;;2.85;0.90;;;17.10;57.10;;;;;;4895126;29;20056;-72
2022/07/15 02:01:43;;;;;;;4.50;0.88;;;17.10;57.10;;;;;;4886345;29;20040;-71
2022/07/15 02:04:13;;;;;;;2.60;0.80;;;17.00;57.00;;;;;;4891715;29;20045;-70
2022/07/15 02:06:41;;;;;;;2.50;0.68;;;17.00;56.50;;;;;;4885293;29;20064;-71
2022/07/15 02:09:08;;;;;;;1.63;0.60;;;17.00;56.50;;;;;;4881796;29;20109;-71
2022/07/15 02:11:41;;;;;;;1.90;0.57;;;17.10;56.40;;;;;;4891272;29;20135;-70
2022/07/15 02:14:09;;;;;;;2.05;0.65;;;17.10;56.40;;;;;;4888844;29;20048;-71
2022/07/15 02:16:36;;;;;;;1.52;0.57;;;17.00;56.60;;;;;;4881117;29;20049;-71
2022/07/15 02:19:08;;;;;;;2.25;0.93;;;16.90;56.80;;;;;;4891547;29;20070;-71
2022/07/15 02:21:37;;;;;;;3.67;0.88;;;16.70;57.20;;;;;;4895330;29;20044;-69
2022/07/15 02:24:05;;;;;;;1.20;0.75;;;16.60;57.60;;;;;;4892934;29;20138;-68
2022/07/15 02:26:32;;;;;;;2.70;0.63;;;16.60;57.80;;;;;;4876936;29;20052;-70
2022/07/15 02:29:01;;;;;;;1.90;0.60;;;16.60;58.00;;;;;;4883408;29;20060;-70
2022/07/15 02:31:30;;;;;;;3.15;0.60;;;16.60;58.20;;;;;;4894264;29;20065;-68
2022/07/15 02:33:57;;;;;;;1.92;0.95;;;16.60;58.40;;;;;;4881518;29;20045;-71
2022/07/15 02:36:28;;;;;;;1.15;0.55;;;16.50;58.50;;;;;;4892605;29;20059;-70
2022/07/15 02:38:56;;;;;;;2.35;0.50;;;16.40;58.60;;;;;;4892791;29;20040;-68
2022/07/15 02:41:24;;;;;;;2.80;0.70;;;16.30;58.70;;;;;;4890626;29;20080;-70
2022/07/15 02:43:51;;;;;;;1.92;0.55;;;16.30;58.80;;;;;;4876186;29;20060;-72
2022/07/15 02:46:19;;;;;;;1.58;0.82;;;16.30;58.90;;;;;;4894324;29;20060;-68
2022/07/15 02:48:47;;;;;;;0.60;0.50;;;16.30;59.10;;;;;;4879621;29;20133;-68
2022/07/15 02:51:14;;;;;;;1.58;0.43;;;16.30;59.30;;;;;;4892917;29;20909;-69
2022/07/15 02:53:42;;;;;;;1.58;0.50;;;16.20;59.30;;;;;;4875460;29;20057;-70
2022/07/15 02:56:14;;;;;;;1.58;0.77;;;16.20;59.60;;;;;;4884061;29;20048;-70
2022/07/15 02:58:41;;;;;;;2.53;0.70;;;16.20;59.70;;;;;;4887896;29;20124;-70
2022/07/15 03:01:09;;;;;;;1.27;0.52;;;16.10;59.90;;;;;;4878020;29;20100;-71
2022/07/15 03:03:38;;;;;;;3.03;0.73;;;16.10;60.00;;;;;;4883221;29;20107;-70
2022/07/15 03:06:08;;;;;;;1.35;0.52;;;16.10;60.00;;;;;;4884573;29;20135;-69
2022/07/15 03:08:37;;;;;;;1.40;0.67;;;16.10;60.10;;;;;;4878793;29;20132;-70
2022/07/15 03:11:06;;;;;;;3.03;0.80;;;16.20;60.20;;;;;;4868064;29;20380;-71
2022/07/15 03:13:33;;;;;;;2.83;0.40;;;16.10;60.40;;;;;;4875561;29;20493;-71
2022/07/15 03:16:00;;;;;;;0.85;0.40;;;16.00;60.60;;;;;;4883520;29;20084;-70
2022/07/15 03:18:27;;;;;;;1.42;0.43;;;15.90;60.70;;;;;;4890476;29;20058;-70
2022/07/15 03:20:55;;;;;;;3.40;0.63;;;15.90;60.90;;;;;;4884138;29;20045;-72
2022/07/15 03:23:22;;;;;;;1.08;0.50;;;15.90;60.90;;;;;;4876743;29;20052;-70
2022/07/15 03:25:52;;;;;;;1.30;0.40;;;15.90;61.10;;;;;;4902004;29;20414;-70
2022/07/15 03:28:20;;;;;;;1.55;0.60;;;15.80;61.20;;;;;;4892367;29;20123;-70
2022/07/15 03:30:47;;;;;;;0.93;0.40;;;15.80;61.30;;;;;;4887646;29;20048;-71
2022/07/15 03:33:16;;;;;;;0.93;0.50;;;15.80;61.40;;;;;;4893341;29;20141;-72
2022/07/15 03:35:44;;;;;;;4.70;0.70;;;15.70;61.50;;;;;;4877581;29;20059;-71
2022/07/15 03:38:13;;;;;;;1.05;0.55;;;15.70;61.50;;;;;;4885359;29;20045;-71
2022/07/15 03:40:39;;;;;;;2.97;0.93;;;15.70;61.50;;;;;;4885984;29;20112;-71
2022/07/15 03:43:07;;;;;;;4.28;0.57;;;15.60;61.70;;;;;;4876403;29;20562;-70
2022/07/15 03:45:36;;;;;;;0.98;0.50;;;15.60;61.90;;;;;;4884048;29;20132;-71
2022/07/15 03:48:03;;;;;;;3.05;0.80;;;15.60;62.00;;;;;;4887908;29;20045;-71
2022/07/15 03:50:33;;;;;;;3.17;0.73;;;15.60;62.20;;;;;;4881998;29;20072;-70
2022/07/15 03:53:02;;;;;;;0.70;0.47;;;15.60;62.20;;;;;;4884589;29;20371;-72
2022/07/15 03:55:31;;;;;;;3.28;0.60;;;15.70;62.20;;;;;;4891034;29;20067;-72
2022/07/15 03:57:58;;;;;;;1.93;0.60;;;15.60;62.30;;;;;;4885045;29;20048;-71
2022/07/15 04:00:25;;;;;;;1.30;0.70;;;15.70;62.10;;;;;;4885710;29;20500;-71
2022/07/15 04:02:52;;;;;;;0.95;0.40;;;15.70;62.10;;;;;;4887946;29;20186;-72
2022/07/15 04:05:19;;;;;;;3.53;0.80;;;15.70;62.00;;;;;;4875210;29;20067;-71
2022/07/15 04:07:46;;;;;;;2.80;0.50;;;15.70;61.90;;;;;;4878808;29;20065;-71
2022/07/15 04:10:13;;;;;;;1.25;0.60;;;15.70;62.00;;;;;;4879460;29;20048;-71
2022/07/15 04:12:43;;;;;;;1.90;0.80;;;15.70;62.10;;;;;;4891422;29;20052;-71
2022/07/15 04:15:11;;;;;;;2.95;0.90;;;15.70;62.20;;;;;;4878073;29;20053;-71
2022/07/15 04:17:38;;;;;;;6.28;1.00;;;15.70;62.40;;;;;;4894175;29;20052;-70
2022/07/15 04:20:07;;;;;;;3.47;0.73;;;15.70;62.30;;;;;;4892505;29;20065;-71
2022/07/15 04:22:40;;;;;;;2.58;1.20;;;15.80;62.30;;;;;;4880290;29;20045;-71
2022/07/15 04:25:08;;;;;;;3.72;0.90;;;15.80;62.20;;;;;;4887625;29;20119;-71
2022/07/15 04:27:36;;;;;;;2.00;0.77;;;15.90;62.20;;;;;;4890668;29;20471;-70
2022/07/15 04:30:05;;;;;;;2.22;1.00;;;15.90;62.00;;;;;;4880350;29;20131;-70
2022/07/15 04:32:40;;;;;;;1.88;0.68;;;15.90;61.90;;;;;;4898700;29;20483;-71
2022/07/15 04:35:07;;;;;;;3.90;1.25;;;16.00;61.60;;;;;;4893288;29;20067;-71
2022/07/15 04:37:34;;;;;;;3.05;0.77;;;16.10;61.30;;;;;;4884116;29;20045;-70
2022/07/15 04:40:01;;;;;;;2.65;0.82;;;16.10;61.30;;;;;;4881303;29;20044;-70
2022/07/15 04:42:30;;;;;;;3.30;0.73;;;16.10;61.10;;;;;;4888402;29;20051;-71
2022/07/15 04:44:58;;;;;;;3.25;0.68;;;16.20;60.80;;;;;;4881045;29;20072;-70
2022/07/15 04:47:26;;;;;;;3.10;0.82;;;16.20;60.70;;;;;;4885412;29;20662;-70
2022/07/15 04:52:44;;;;;;;1.65;0.65;;;16.20;60.60;;;;;;4882870;29;20073;-70
2022/07/15 04:55:12;;;;;;;1.92;0.90;;;16.20;60.90;;;;;;4886231;29;20056;-70
2022/07/15 04:57:39;;;;;;;1.80;0.85;;;16.20;61.10;;;;;;4885511;29;20040;-72
2022/07/15 05:00:08;;;;;;;2.60;0.90;;;16.20;61.30;;;;;;4873926;29;20041;-70
2022/07/15 05:02:40;;;;;;;2.33;1.10;;;16.20;61.50;;;;;;4864962;29;20136;-72
2022/07/15 05:05:07;;;;;;;2.63;0.73;;;16.20;61.30;;;;;;4890992;29;20459;-71
2022/07/15 05:07:35;;;;;;;4.65;1.10;;;16.20;61.30;;;;;;4881412;29;20487;-71
2022/07/15 05:10:03;;;;;;;6.72;0.88;;;16.30;61.30;;;;;;4881996;29;20112;-71
2022/07/15 05:12:30;;;;;;;2.58;0.90;;;16.30;61.00;;;;;;4891001;29;20060;-71
2022/07/15 05:14:59;;;;;;;2.50;0.70;;;16.20;61.20;;;;;;4876049;29;20067;-72
2022/07/15 05:17:26;;;;;;;1.60;0.60;;;16.30;60.70;;;;;;4879976;29;20045;-71
2022/07/15 05:19:55;;;;;;;1.50;0.70;;;16.30;60.80;;;;;;4891690;29;20152;-71
2022/07/15 05:22:25;;;;;;;4.00;0.75;;;16.40;60.80;;;;;;4882722;29;20363;-71
2022/07/15 05:24:52;;;;;;;1.48;0.70;;;16.40;60.80;;;;;;4879228;29;20055;-70
2022/07/15 05:27:19;;;;;;;2.13;0.70;;;16.50;61.00;;;;;;4880156;29;20407;-71
2022/07/15 05:29:48;;;;;;;1.35;0.70;;;16.60;60.70;;;;;;4884030;29;20108;-72
2022/07/15 05:32:16;;;;;;;4.78;0.77;;;16.60;60.60;;;;;;4886031;29;20044;-71
2022/07/15 05:34:45;;;;;;;2.25;0.60;;;16.70;60.30;;;;;;4888877;29;20139;-71
2022/07/15 05:37:15;;;;;;;1.23;0.70;;;16.60;60.40;;;;;;4859769;29;20101;-71
2022/07/15 05:39:53;;;;;;;2.20;0.75;;;16.60;60.40;;;;;;4885299;29;20859;-71
2022/07/15 05:42:25;;;;;;;2.58;0.88;;;16.60;60.50;;;;;;4887610;29;20048;-70
2022/07/15 05:44:52;;;;;;;3.22;0.85;;;16.60;60.60;;;;;;4877498;29;20048;-70
2022/07/15 05:47:19;;;;;;;2.00;0.50;;;16.60;60.70;;;;;;4886921;29;20055;-70
2022/07/15 05:49:48;;;;;;;2.33;0.90;;;16.60;60.30;;;;;;4890472;29;20052;-70
2022/07/15 05:52:16;;;;;;;2.40;0.68;;;16.60;60.30;;;;;;4892592;29;20379;-70
2022/07/15 05:54:43;;;;;;;2.13;0.90;;;16.60;60.20;;;;;;4888546;29;20053;-71
2022/07/15 05:57:10;;;;;;;1.75;0.60;;;16.70;60.20;;;;;;4890756;29;20060;-71
2022/07/15 05:59:37;;;;;;;4.40;0.80;;;16.80;60.10;;;;;;4895134;29;20177;-70
2022/07/15 06:02:04;;;;;;;2.55;1.05;;;16.90;60.00;;;;;;4870156;29;20044;-70
2022/07/15 06:04:32;;;;;;;2.38;0.60;;;16.90;59.90;;;;;;4901831;29;20076;-71
2022/07/15 06:06:59;;;;;;;1.52;0.50;;;16.90;60.00;;;;;;4891283;29;20056;-71
2022/07/15 06:09:28;;;;;;;1.80;0.60;;;17.10;59.90;;;;;;4875967;29;20073;-69
2022/07/15 06:11:55;;;;;;;2.55;0.82;;;17.10;59.40;;;;;;4894896;29;20057;-70
2022/07/15 06:14:22;;;;;;;1.75;0.50;;;17.20;59.20;;;;;;4879772;29;20072;-71
2022/07/15 06:16:49;;;;;;;0.90;0.50;;;17.30;58.60;;;;;;4890479;29;20041;-71
2022/07/15 06:19:17;;;;;;;4.50;0.77;;;17.30;58.60;;;;;;4889786;29;20063;-70
2022/07/15 06:21:43;;;;;;;2.60;0.52;;;17.40;58.50;;;;;;4880137;29;20088;-70
2022/07/15 06:24:11;;;;;;;1.80;0.60;;;17.60;58.50;;;;;;4887489;29;20064;-72
2022/07/15 06:26:42;;;;;;;4.50;0.88;;;17.70;58.60;;;;;;4871888;29;20049;-72
2022/07/15 06:29:09;;;;;;;2.83;0.82;;;17.80;58.60;;;;;;4887031;29;20384;-70
2022/07/15 06:31:36;;;;;;;1.73;0.70;;;17.90;58.60;;;;;;4881727;29;20045;-71
2022/07/15 06:34:03;;;;;;;1.50;0.70;;;17.90;58.60;;;;;;4884171;29;20109;-72
2022/07/15 06:36:30;;;;;;;5.85;1.23;;;18.00;58.40;;;;;;4882874;29;20052;-69
2022/07/15 06:38:58;;;;;;;4.10;1.05;;;18.00;58.30;;;;;;4883304;29;20518;-71
2022/07/15 06:41:25;;;;;;;3.03;1.15;;;18.00;58.50;;;;;;4879002;29;20057;-71
2022/07/15 06:43:53;;;;;;;3.25;1.00;;;18.10;58.50;;;;;;4882478;29;20112;-71
2022/07/15 06:46:35;;;;;;;4.88;1.00;;;18.10;58.60;;;;;;4882370;29;20491;-71
2022/07/15 06:49:03;;;;;;;1.98;0.80;;;18.20;58.30;;;;;;4887562;29;20052;-71
2022/07/15 06:51:31;;;;;;;2.58;1.13;;;18.20;58.20;;;;;;4883719;29;20057;-71
2022/07/15 06:53:58;;;;;;;2.28;0.93;;;18.30;58.20;;;;;;4877600;29;20056;-71
2022/07/15 06:56:29;;;;;;;6.07;1.13;;;18.30;57.90;;;;;;4885275;29;20127;-72
2022/07/15 06:58:58;;;;;;;2.53;0.93;;;18.30;58.00;;;;;;4891384;29;20061;-69
2022/07/15 07:01:25;;;;;;;3.10;0.50;;;18.40;57.90;;;;;;4889267;29;20135;-71
2022/07/15 07:03:52;;;;;;;2.60;0.70;;;18.40;57.30;;;;;;4890205;29;20076;-70
2022/07/15 07:06:19;;;;;;;2.38;0.93;;;18.50;57.30;;;;;;4889082;29;20055;-71
2022/07/15 07:08:47;;;;;;;6.22;0.88;;;18.60;57.40;;;;;;4895902;29;20471;-71
2022/07/15 07:11:14;;;;;;;4.20;0.93;;;18.60;57.20;;;;;;4881706;29;20128;-70
2022/07/15 07:13:41;;;;;;;3.47;0.80;;;18.60;57.20;;;;;;4886796;29;20044;-72
2022/07/15 07:16:10;;;;;;;3.55;0.80;;;18.70;56.90;;;;;;4886058;29;20109;-72
2022/07/15 07:18:37;;;;;;;2.53;0.73;;;18.70;56.80;;;;;;4887139;29;20044;-71
2022/07/15 07:21:04;;;;;;;1.90;0.63;;;18.80;56.90;;;;;;4885844;29;20051;-72
2022/07/15 07:23:31;;;;;;;1.55;0.50;;;18.80;57.00;;;;;;4888778;29;20064;-70
2022/07/15 07:25:58;;;;;;;2.65;0.55;;;18.90;57.00;;;;;;4891047;29;20059;-71
2022/07/15 07:28:25;;;;;;;1.60;0.68;;;18.90;57.00;;;;;;4886423;29;20051;-71
2022/07/15 07:30:54;;;;;;;3.97;0.73;;;19.00;57.00;;;;;;4890625;29;20123;-71
2022/07/15 07:33:23;;;;;;;3.15;0.68;;;19.00;57.00;;;;;;4891317;29;20261;-71
2022/07/15 07:35:50;;;;;;;2.00;0.70;;;19.00;57.10;;;;;;4891138;29;20047;-70
2022/07/15 07:38:17;;;;;;;1.38;0.47;;;19.00;57.20;;;;;;4888293;29;20045;-71
2022/07/15 07:40:43;;;;;;;1.20;0.50;;;19.00;57.30;;;;;;4890044;29;20045;-70
2022/07/15 07:43:10;;;;;;;2.78;0.80;;;19.10;57.20;;;;;;4884937;29;20076;-72
2022/07/15 07:45:37;;;;;;;3.42;1.00;;;19.20;57.00;;;;;;4883492;29;20549;-69
2022/07/15 07:48:05;;;;;;;4.13;0.88;;;19.30;56.90;;;;;;4880652;29;20048;-71
2022/07/15 07:50:34;;;;;;;1.15;0.60;;;19.50;56.90;;;;;;4888412;29;20084;-69
2022/07/15 07:53:01;;;;;;;5.38;0.93;;;19.70;56.90;;;;;;4878215;29;20060;-69
2022/07/15 07:55:28;;;;;;;3.38;0.68;;;19.80;56.90;;;;;;4884603;29;20049;-70
2022/07/15 07:57:57;;;;;;;2.33;0.60;;;19.90;56.70;;;;;;4891970;29;20044;-72
2022/07/15 08:00:26;;;;;;;3.25;0.50;;;20.00;56.70;;;;;;4884827;29;20044;-67
2022/07/15 08:02:54;;;;;;;1.52;0.75;;;20.10;56.80;;;;;;4882643;29;20060;-65
2022/07/15 08:05:22;;;;;;;2.67;0.68;;;20.20;56.30;;;;;;4885743;29;20502;-64
2022/07/15 08:07:50;;;;;;;2.60;0.90;;;20.30;56.20;;;;;;4884011;29;20164;-66
2022/07/15 08:10:19;;;;;;;1.35;0.40;;;20.40;55.80;;;;;;4886470;29;20067;-65
2022/07/15 08:12:46;;;;;;;1.05;0.52;;;20.70;55.80;;;;;;4884403;29;20139;-64
2022/07/15 08:15:15;;;;;;;1.65;0.57;;;20.80;55.60;;;;;;4885325;29;20048;-66
2022/07/15 08:17:42;;;;;;;2.85;0.60;;;20.90;55.30;;;;;;4885495;29;20506;-65
2022/07/15 08:20:10;;;;;;;3.35;0.50;;;21.10;54.80;;;;;;4888007;29;20049;-63
2022/07/15 08:22:38;;;;;;;4.05;0.73;;;21.10;54.90;;;;;;4886428;29;20066;-66
2022/07/15 08:25:07;;;;;;;2.83;0.95;;;21.10;54.70;;;;;;4886966;29;20063;-65
2022/07/15 08:27:34;;;;;;;2.08;0.47;;;21.30;54.20;;;;;;4891074;29;20056;-65
2022/07/15 08:30:01;;;;;;;1.98;0.55;;;21.50;53.30;;;;;;4884074;29;20273;-65
2022/07/15 08:32:29;;;;;;;1.48;0.50;;;21.50;53.50;;;;;;4884819;29;23882;-65
2022/07/15 08:34:56;;;;;;;1.77;0.60;;;21.50;53.80;;;;;;4886167;29;20063;-66
2022/07/15 08:37:26;;;;;;;2.55;0.60;;;21.50;53.60;;;;;;4878880;29;20067;-64
2022/07/15 08:39:53;;;;;;;1.80;0.75;;;21.40;53.60;;;;;;4887878;29;20136;-65
2022/07/15 08:42:21;;;;;;;1.90;0.68;;;21.50;53.70;;;;;;4886633;29;20069;-64
2022/07/15 08:44:48;;;;;;;3.30;0.77;;;21.60;53.50;;;;;;4886266;29;20048;-65
2022/07/15 08:47:16;;;;;;;1.20;0.52;;;21.70;53.10;;;;;;4879220;29;20500;-65
2022/07/15 08:49:45;;;;;;;1.17;0.60;;;21.90;53.00;;;;;;4894623;29;20068;-64
2022/07/15 08:52:14;;;;;;;2.25;0.80;;;21.90;52.80;;;;;;4890078;29;20061;-65
2022/07/15 08:54:42;;;;;;;3.03;0.70;;;21.90;52.80;;;;;;4894825;29;20490;-66
2022/07/15 08:57:10;;;;;;;5.05;1.17;;;22.00;52.70;;;;;;4887710;29;21270;-66
2022/07/15 08:59:39;;;;;;;2.65;0.80;;;22.10;52.60;;;;;;4881635;29;20073;-64
2022/07/15 09:02:05;;;;;;;2.80;0.80;;;22.10;52.30;;;;;;4885170;29;20052;-64
2022/07/15 09:04:33;;;;;;;5.97;0.90;;;22.00;52.30;;;;;;4889801;29;20057;-65
2022/07/15 09:07:03;;;;;;;3.35;0.70;;;22.00;52.10;;;;;;4873951;29;21260;-63
2022/07/15 09:09:32;;;;;;;4.80;0.80;;;22.10;52.20;;;;;;4888457;29;20124;-64
2022/07/15 09:12:02;;;;;;;3.20;0.70;;;22.10;52.20;;;;;;4878506;29;20053;-63
2022/07/15 09:14:30;;;;;;;2.35;1.08;;;22.10;52.30;;;;;;4882713;29;20518;-65
2022/07/15 09:17:07;;;;;;;3.15;1.15;;;22.10;51.80;;;;;;4889047;29;20044;-64
2022/07/15 09:19:59;;;;;;;1.38;1.02;;;22.10;51.90;;;;;;4894063;29;20060;-65
2022/07/15 09:22:28;;;;;;;6.63;1.70;;;22.10;51.90;;;;;;4887360;29;20048;-65
2022/07/15 09:25:04;;;;;;;4.73;1.27;;;22.10;51.60;;;;;;4882057;29;20459;-66
2022/07/15 09:27:36;;;;;;;5.20;1.40;;;22.10;51.50;;;;;;4887911;29;20064;-66
2022/07/15 09:36:02;;;;;;;6.05;2.25;;;22.10;51.40;;;;;;4877127;29;20726;-65
2022/07/15 09:38:40;;;;;;;6.53;2.45;;;22.10;51.40;;;;;;4874088;29;21225;-66
2022/07/15 09:41:07;;;;;;;5.57;2.70;;;22.30;51.30;;;;;;4885735;29;20480;-64
2022/07/15 09:43:44;;;;;;;6.65;2.50;;;22.40;51.10;;;;;;4892084;29;20493;-64
2022/07/15 09:46:11;;;;;;;5.63;1.92;;;22.60;51.10;;;;;;4889748;29;20680;-65
2022/07/15 09:48:42;;;;;;;5.57;1.85;;;22.80;50.80;;;;;;4879782;29;20080;-63
2022/07/15 09:51:10;;;;;;;5.20;1.63;;;22.90;49.80;;;;;;4886207;29;20045;-66
2022/07/15 09:53:38;;;;;;;2.97;1.20;;;23.00;49.40;;;;;;4886595;29;20052;-64
2022/07/15 09:56:08;;;;;;;4.80;1.50;;;22.90;49.30;;;;;;4886533;29;20050;-64
2022/07/15 09:58:38;;;;;;;2.55;1.00;;;22.90;49.30;;;;;;4885309;29;20565;-65
2022/07/15 10:01:06;;;;;;;5.30;1.42;;;22.80;49.30;;;;;;4882869;29;20044;-64
2022/07/15 10:03:33;;;;;;;3.88;1.33;;;22.70;49.10;;;;;;4889639;29;20053;-64
2022/07/15 10:06:02;;;;;;;3.65;1.13;;;22.60;48.90;;;;;;4889277;29;20053;-65
2022/07/15 10:08:31;;;;;;;2.30;1.00;;;22.60;48.60;;;;;;4882640;29;20084;-65
2022/07/15 10:10:58;;;;;;;1.95;0.95;;;22.60;48.60;;;;;;4884720;29;20080;-64
2022/07/15 10:13:43;;;;;;;3.40;0.95;;;22.60;48.40;;;;;;4882739;29;20056;-64
2022/07/15 10:16:27;;;;;;;3.20;0.90;;;22.80;48.40;;;;;;4883753;29;20056;-66
2022/07/15 10:19:05;;;;;;;4.80;1.20;;;22.90;48.40;;;;;;4887862;29;20475;-65
2022/07/15 10:21:41;;;;;;;4.93;1.50;;;22.90;48.70;;;;;;4884645;29;20124;-64
2022/07/15 10:24:25;;;;;;;3.97;1.30;;;22.80;48.20;;;;;;4886037;29;20886;-62
2022/07/15 10:27:18;;;;;;;2.58;1.17;;;22.70;48.00;;;;;;4898773;29;20431;-65
2022/07/15 10:29:46;;;;;;;5.10;1.70;;;22.60;48.00;;;;;;4891578;29;20053;-62
2022/07/15 10:32:13;;;;;;;5.25;1.55;;;22.60;47.50;;;;;;4897614;29;20538;-63
2022/07/15 10:34:42;;;;;;;2.17;1.15;;;22.60;47.30;;;;;;4905521;29;20040;-64
2022/07/15 10:37:12;;;;;;;2.17;0.85;;;22.80;47.10;;;;;;4892643;29;20068;-64
2022/07/15 10:39:48;;;;;;;;;;;23.10;46.60;;;;;;4902275;29;20056;-63
2022/07/15 10:42:17;;;;;;;2.28;0.95;;;23.40;46.10;;;;;;4900294;29;20366;-63
2022/07/15 10:45:09;;;;;;;3.85;1.48;;;23.50;45.90;;;;;;4902143;29;20133;-65
2022/07/15 10:47:37;;;;;;;4.10;1.77;;;23.50;45.70;;;;;;4890298;29;20050;-65
2022/07/15 10:50:36;;;;;;;4.78;1.70;;;23.50;45.40;;;;;;4896656;29;20052;-63
2022/07/15 10:53:22;;;;;;;4.93;1.98;;;23.40;44.70;;;;;;4897726;29;20059;-64
2022/07/15 10:55:49;;;;;;;3.75;2.08;;;23.40;44.60;;;;;;4898607;29;20048;-63
2022/07/15 10:58:17;;;;;;;4.07;1.45;;;23.40;44.50;;;;;;4888607;29;20498;-63
2022/07/15 11:00:46;;;;;;;4.40;1.60;;;23.50;44.40;;;;;;4888721;29;20082;-65
2022/07/15 11:03:15;;;;;;;3.95;1.15;;;23.50;43.80;;;;;;4898940;29;20060;-64
2022/07/15 11:06:01;;;;;;;2.58;1.30;;;23.60;44.10;;;;;;4880089;29;20121;-64
2022/07/15 11:08:49;;;;;;;2.05;0.95;;;23.60;44.00;;;;;;4902642;29;20045;-65
2022/07/15 11:11:48;;;;;;;1.60;0.90;;;23.60;42.70;;;;;;4894486;29;20056;-64
2022/07/15 11:14:44;;;;;;;3.17;1.52;;;23.50;42.80;;;;;;4890011;29;21450;-64
2022/07/15 11:17:12;;;;;;;3.72;1.20;;;23.50;42.90;;;;;;4896417;29;20060;-65
2022/07/15 11:19:39;;;;;;;3.60;1.30;;;23.50;43.00;;;;;;4884925;29;20072;-66
2022/07/15 11:22:09;;;;;;;2.92;1.30;;;23.40;42.90;;;;;;4886848;29;20053;-66
2022/07/15 11:24:37;;;;;;;3.58;1.27;;;23.30;43.10;;;;;;4895564;29;20052;-64
2022/07/15 11:27:05;;;;;;;4.32;1.58;;;23.20;43.10;;;;;;4893482;29;20836;-64
2022/07/15 11:29:43;;;;;;;3.42;1.48;;;23.10;42.10;;;;;;4896780;29;20112;-66
2022/07/15 11:32:10;;;;;;;3.20;1.30;;;23.10;42.50;;;;;;4892323;29;20043;-65
2022/07/15 11:34:40;;;;;;;3.17;1.08;;;23.20;42.80;;;;;;4887008;29;20104;-64
2022/07/15 11:37:07;;;;;;;2.72;1.30;;;23.30;42.50;;;;;;4893332;29;20109;-64
2022/07/15 11:39:34;;;;;;;3.53;1.65;;;23.20;42.40;;;;;;4893793;29;20057;-63
2022/07/15 11:44:46;;;;;;;3.83;1.27;;;23.30;41.70;;;;;;4882698;29;20513;-64
2022/07/15 11:47:13;;;;;;;2.95;1.50;;;23.40;42.50;;;;;;4885426;29;20041;-64
2022/07/15 11:49:41;;;;;;;6.38;2.55;;;23.50;42.70;;;;;;4890659;29;20506;-64
2022/07/15 11:52:11;;;;;;;7.03;3.03;;;23.60;43.00;;;;;;4902027;29;20044;-64
2022/07/15 11:54:40;;;;;;;6.38;2.45;;;23.50;42.50;;;;;;4888871;29;20045;-63
2022/07/15 11:57:12;;;;;;;3.88;1.80;;;23.40;42.60;;;;;;4895571;29;20048;-64
2022/07/15 11:59:39;;;;;;;5.63;2.03;;;23.30;42.60;;;;;;4892290;29;20139;-62
2022/07/15 12:02:07;;;;;;;3.42;1.70;;;23.30;42.70;;;;;;4892449;29;20067;-64
2022/07/15 12:04:35;;;;;;;4.17;1.80;;;23.30;42.80;;;;;;4891318;29;20062;-64
2022/07/15 12:07:03;;;;;;;3.20;1.60;;;23.30;42.90;;;;;;4890051;29;20152;-62
2022/07/15 12:09:39;;;;;;;3.35;1.70;;;23.30;42.80;;;;;;4886596;29;20100;-64
2022/07/15 12:12:08;;;;;;;4.78;1.33;;;23.30;42.80;;;;;;4886812;29;20147;-63
2022/07/15 12:14:35;;;;;;;3.87;1.50;;;23.50;42.50;;;;;;4885316;29;20056;-64
2022/07/15 12:17:04;;;;;;;3.47;1.40;;;23.70;42.70;;;;;;4887749;29;22033;-65
2022/07/15 12:19:32;;;;;;;4.72;1.98;;;24.00;42.70;;;;;;4882572;29;20772;-62
2022/07/15 12:22:05;;;;;;;4.37;1.70;;;24.20;42.80;;;;;;4885172;29;20272;-63
2022/07/15 12:24:41;;;;;;;2.97;1.67;;;24.50;42.50;;;;;;4877482;29;20056;-64
2022/07/15 12:27:10;;;;;;;6.45;2.03;;;24.60;42.30;;;;;;4886332;29;20108;-63
2022/07/15 12:29:37;;;;;;;4.97;1.92;;;24.70;42.30;;;;;;4885542;29;20521;-62
2022/07/15 12:32:08;;;;;;;5.05;1.60;;;24.80;42.40;;;;;;4896337;29;20131;-63
2022/07/15 12:34:53;;;;;;;5.13;1.70;;;24.90;42.10;;;;;;4898514;29;20090;-63
2022/07/15 12:37:22;;;;;;;4.22;1.80;;;24.90;42.10;;;;;;4885545;29;20041;-62
2022/07/15 12:39:56;;;;;;;;;;;24.80;41.70;;;;;;4887410;29;20375;-64
2022/07/15 12:42:25;;;;;;;2.33;1.15;;;24.70;41.10;;;;;;4882085;29;19923;-64
2022/07/15 12:45:09;;;;;;;;;;;24.50;40.90;;;;;;4888342;29;20051;-63
2022/07/15 12:47:36;;;;;;;4.22;1.67;;;24.40;41.00;;;;;;4878521;29;19928;-64
2022/07/15 12:50:05;;;;;;;6.00;1.50;;;24.30;40.80;;;;;;4887182;29;20490;-65
2022/07/15 12:52:36;;;;;;;1.38;1.08;;;24.30;40.70;;;;;;4889670;29;20700;-63
2022/07/15 12:55:16;;;;;;;3.40;1.50;;;24.30;39.90;;;;;;4877891;29;20139;-63
2022/07/15 12:57:44;;;;;;;4.93;1.45;;;24.30;40.00;;;;;;4883743;29;20495;-65
2022/07/15 13:00:14;;;;;;;2.85;1.10;;;24.40;40.10;;;;;;4886255;29;20052;-65
2022/07/15 13:03:03;;;;;;;3.10;1.00;;;24.50;40.10;;;;;;4884372;29;20056;-64
2022/07/15 13:05:32;;;;;;;2.33;1.10;;;24.50;40.30;;;;;;4887870;29;20053;-63
2022/07/15 13:07:59;;;;;;;3.53;1.10;;;24.50;40.40;;;;;;4888039;29;20058;-66
2022/07/15 13:10:29;;;;;;;3.60;1.08;;;24.60;40.30;;;;;;4881596;29;20433;-64
2022/07/15 13:12:57;;;;;;;2.38;1.10;;;24.70;39.90;;;;;;4885817;29;20081;-63
2022/07/15 13:15:24;;;;;;;2.13;1.03;;;24.80;40.00;;;;;;4885333;29;20056;-64